Flight Track Log - Related Links

Times and Time Zones

All times are in EDT time to prevent confusion due to time zone crossing. See the FFT917 flight status page for this flight to view local times or setup timezone preferences in your user account.

Time Position Orientation Groundspeed Altitude Reporting Facility
EDT Latitude Longitude Course Direction KTS km/h feet Rate Location/Type
Sat 08:11:02 40.2540 -74.8340 192° South 155 286 1.700  Level FlightAware ADS-B
Sat 08:11:26 40.2360 -74.8390 192° South 181 335 2.300 1.560 Climbing FlightAware ADS-B
Sat 08:11:52 40.2110 -74.8470 194° South 208 385 3.000 1.600 Climbing FlightAware ADS-B
Sat 08:12:11 40.1970 -74.8590 213° Southwest 216 401 3.500 1.548 Climbing FlightAware ADS-B
Sat 08:12:23 40.1910 -74.8750 244° Southwest 231 428 3.800 2.100 Climbing FlightAware ADS-B
Sat 08:12:51 40.1780 -74.9120 245° Southwest 254 470 4.900 2.800 Climbing FlightAware ADS-B
Sat 08:13:08 40.1690 -74.9360 244° Southwest 253 468 5.900 2.791 Climbing FlightAware ADS-B
Sat 08:13:34 40.1580 -74.9660 244° Southwest 254 470 6.900 1.358 Climbing FlightAware ADS-B
Sat 08:14:01 40.1480 -74.9920 243° Southwest 255 472 7.100 174 Climbing FlightAware ADS-B
Sat 08:14:43 40.1290 -75.0410 243° Southwest 255 472 7.100  Level FlightAware ADS-B
Sat 08:15:10 40.1120 -75.0870 244° Southwest 256 475 7.100 1.778 Level FlightAware ADS-B
Sat 08:16:04 40.0840 -75.1590 243° Southwest 261 483 9.500 1.818 Climbing FlightAware ADS-B
Sat 08:16:49 40.0510 -75.2450 243° Southwest 268 496 10.100 404 Climbing FlightAware ADS-B
Sat 08:17:33 40.0260 -75.3090 243° Southwest 268 496 10.100  Level FlightAware ADS-B
Sat 08:18:14 39.9910 -75.3540 225° Southwest 270 501 10.100  Level FlightAware ADS-B
Sat 08:18:49 39.9580 -75.3900 220° Southwest 272 504 10.100  Level FlightAware ADS-B
Sat 08:19:50 39.9060 -75.4490 221° Southwest 306 566 10.100  Level FlightAware ADS-B
Sat 08:20:28 39.8740 -75.5040 233° Southwest 299 554 10.100 722 Level FlightAware ADS-B
Sat 08:21:38 39.8590 -75.6250 261° West 307 568 11.400 1.111 Climbing FlightAware ADS-B
Sat 08:22:16 39.8480 -75.7170 261° West 305 565 12.100 1.892 Climbing FlightAware ADS-B
Sat 08:26:33 39.6320 -76.1260 236° Southwest 360 666 20.700 2.040 Climbing FlightAware ADS-B
Sat 08:27:13 39.5930 -76.1880 231° Southwest 355 658 22.200 1.663 Climbing FlightAware ADS-B
Sat 08:27:56 39.5470 -76.2590 230° Southwest 371 687 23.000 933 Climbing FlightAware ADS-B
Sat 08:28:43 39.4810 -76.3600 230° Southwest 388 719 23.600 1.034 Climbing FlightAware ADS-B
Sat 08:29:23 39.4340 -76.4330 230° Southwest 399 739 24.500 1.352 Climbing FlightAware ADS-B
Sat 08:29:54 39.3980 -76.4900 231° Southwest 406 752 25.200 1.417 Climbing FlightAware ADS-B
Sat 08:30:35 39.3480 -76.5690 231° Southwest 413 764 26.200 1.407 Climbing FlightAware ADS-B
Sat 08:31:15 39.3000 -76.6430 230° Southwest 419 776 27.100 1.084 Climbing FlightAware ADS-B
Sat 08:31:58 39.2630 -76.7030 231° Southwest 425 787 27.700 1.091 Climbing FlightAware ADS-B
Sat 08:32:43 39.2040 -76.7940 230° Southwest 432 800 28.700 1.395 Climbing FlightAware ADS-B
Sat 08:33:24 39.1500 -76.8790 231° Southwest 434 803 29.700 1.852 Climbing FlightAware ADS-B
Sat 08:34:04 39.0850 -76.9790 230° Southwest 426 789 31.200 1.610 Climbing FlightAware ADS-B
Sat 08:34:46 39.0260 -77.0580 226° Southwest 434 803 31.900 1.186 Climbing FlightAware ADS-B
Sat 08:35:30 38.9590 -77.1320 221° Southwest 436 808 32.900 1.429 Climbing FlightAware ADS-B
Sat 08:36:10 38.8990 -77.1990 221° Southwest 432 800 33.900 900 Climbing FlightAware ADS-B
Sat 08:36:50 38.8370 -77.2660 220° Southwest 427 790 34.100 67 Climbing FlightAware ADS-B
Sat 08:37:39 38.7650 -77.3450 221° Southwest 428 793 34.000 -70 Descending FlightAware ADS-B
Sat 08:38:16 38.7090 -77.4060 220° Southwest 429 795 34.000 72 Level FlightAware ADS-B
Sat 08:39:02 38.6590 -77.4600 220° Southwest 429 795 34.100  Climbing FlightAware ADS-B
Sat 08:40:39 38.5100 -77.6210 220° Southwest 430 797 34.000  Descending FlightAware ADS-B
Sat 08:41:24 38.4400 -77.6970 220° Southwest 430 797 34.100 67 Climbing FlightAware ADS-B
Sat 08:42:08 38.3560 -77.7880 220° Southwest 430 797 34.100  Level FlightAware ADS-B
Sat 08:42:54 38.2870 -77.8610 220° Southwest 429 795 34.100 -77 Level FlightAware ADS-B
Sat 08:43:26 38.2390 -77.9130 220° Southwest 429 795 34.000 -79 Descending FlightAware ADS-B
Sat 08:44:10 38.1710 -77.9860 220° Southwest 428 793 34.000  Level FlightAware ADS-B
Sat 08:44:49 38.1290 -78.0310 220° Southwest 429 795 34.000  Level FlightAware ADS-B
Sat 08:45:28 38.0710 -78.0920 220° Southwest 430 797 34.000  Level FlightAware ADS-B
Sat 08:46:22 37.9870 -78.1780 219° Southwest 432 800 34.000 59 Level FlightAware ADS-B
Sat 08:47:10 37.9120 -78.2500 217° Southwest 433 801 34.100 71 Climbing FlightAware ADS-B
Sat 08:47:47 37.8320 -78.3260 217° Southwest 435 806 34.100  Level FlightAware ADS-B
Sat 08:48:26 37.7680 -78.3870 217° Southwest 437 810 34.100  Level FlightAware ADS-B
Sat 08:49:10 37.7020 -78.4500 217° Southwest 438 811 34.100  Level FlightAware ADS-B
Sat 08:49:52 37.6480 -78.5010 217° Southwest 439 813 34.100  Level FlightAware ADS-B
Sat 08:50:36 37.5740 -78.5710 217° Southwest 438 811 34.100  Level FlightAware ADS-B
Sat 08:51:12 37.5000 -78.6410 217° Southwest 437 810 34.100 -72 Level FlightAware ADS-B
Sat 08:51:59 37.4260 -78.7100 217° Southwest 438 811 34.000 -69 Descending FlightAware ADS-B
Sat 08:52:39 37.3590 -78.7730 217° Southwest 437 810 34.000  Level FlightAware ADS-B
Sat 08:53:31 37.2750 -78.8510 216° Southwest 436 808 34.000  Level FlightAware ADS-B
Sat 08:54:09 37.2140 -78.9090 217° Southwest 435 806 34.000  Level FlightAware ADS-B
Sat 08:54:51 37.1670 -78.9520 216° Southwest 435 806 34.000  Level FlightAware ADS-B
Sat 08:55:58 37.0650 -79.0470 217° Southwest 435 806 34.000 462 Level FlightAware ADS-B
Sat 08:56:35 36.9970 -79.1100 217° Southwest 440 814 34.800 1.367 Climbing FlightAware ADS-B
Sat 08:57:17 36.9070 -79.1920 216° Southwest 442 819 35.800 929 Climbing FlightAware ADS-B
Sat 08:57:59 36.8380 -79.2570 217° Southwest 438 811 36.100 207 Climbing FlightAware ADS-B
Sat 08:58:44 36.7740 -79.3150 216° Southwest 441 816 36.100 -71 Level FlightAware ADS-B
Sat 08:59:24 36.7230 -79.3620 216° Southwest 443 821 36.000  Descending FlightAware ADS-B
Sat 09:00:13 36.6200 -79.4560 216° Southwest 442 819 36.100 65 Climbing FlightAware ADS-B
Sat 09:00:57 36.5470 -79.5230 216° Southwest 442 819 36.100  Level FlightAware ADS-B
Sat 09:01:41 36.4840 -79.5800 216° Southwest 442 819 36.100  Level FlightAware ADS-B
Sat 09:02:18 36.4320 -79.6270 216° Southwest 442 819 36.100 -59 Level FlightAware ADS-B
Sat 09:03:23 36.3340 -79.7160 216° Southwest 439 813 36.000 -58 Descending FlightAware ADS-B
Sat 09:04:01 36.2440 -79.7970 216° Southwest 440 814 36.000  Level FlightAware ADS-B
Sat 09:04:47 36.1740 -79.8610 216° Southwest 442 819 36.000 70 Level FlightAware ADS-B
Sat 09:05:27 36.1130 -79.9150 216° Southwest 443 821 36.100 76 Climbing FlightAware ADS-B
Sat 09:06:06 36.0580 -79.9650 216° Southwest 443 821 36.100  Level FlightAware ADS-B
Sat 09:06:53 35.9920 -80.0240 216° Southwest 443 821 36.100  Level FlightAware ADS-B
Sat 09:07:25 35.8930 -80.0530 193° South 433 801 36.100 -78 Level FlightAware ADS-B
Sat 09:08:10 35.8060 -80.0970 202° Southwest 433 801 36.000 -71 Descending FlightAware ADS-B
Sat 09:08:50 35.7280 -80.1360 202° Southwest 435 806 36.000  Level FlightAware ADS-B
Sat 09:09:24 35.6800 -80.1600 202° Southwest 436 808 36.000  Level FlightAware ADS-B
Sat 09:10:12 35.6040 -80.1980 202° Southwest 436 808 36.000 74 Level FlightAware ADS-B
Sat 09:10:45 35.5300 -80.2360 203° Southwest 449 832 36.100 73 Climbing FlightAware ADS-B
Sat 09:11:34 35.4130 -80.2940 202° Southwest 451 835 36.100  Level FlightAware ADS-B
Sat 09:12:14 35.3330 -80.3340 202° Southwest 452 837 36.100  Level FlightAware ADS-B
Sat 09:12:58 35.2470 -80.3770 202° Southwest 455 843 36.100  Level FlightAware ADS-B
Sat 09:13:33 35.1900 -80.4050 202° Southwest 455 843 36.100  Level FlightAware ADS-B
Sat 09:14:27 35.0990 -80.4500 202° Southwest 456 845 36.100  Level FlightAware ADS-B
Sat 09:15:18 34.9970 -80.5000 202° Southwest 458 848 36.100  Level FlightAware ADS-B
Sat 09:16:08 34.8750 -80.5600 202° Southwest 458 848 36.100 -73 Level FlightAware ADS-B
Sat 09:16:40 34.8120 -80.5910 202° Southwest 458 848 36.000  Descending FlightAware ADS-B
Sat 09:17:24 34.7250 -80.6340 202° Southwest 458 848 36.100 71 Climbing FlightAware ADS-B
Sat 09:18:04 34.6450 -80.6730 202° Southwest 457 847 36.100 -73 Level FlightAware ADS-B
Sat 09:18:46 34.5640 -80.7120 202° Southwest 457 847 36.000 -70 Descending FlightAware ADS-B
Sat 09:19:30 34.4780 -80.7540 202° Southwest 458 848 36.000  Level FlightAware ADS-B
Sat 09:20:14 34.3910 -80.7970 202° Southwest 459 850 36.000 61 Level FlightAware ADS-B
Sat 09:21:08 34.2850 -80.8400 199° South 458 848 36.100  Climbing FlightAware ADS-B
Sat 09:21:54 34.2039 -80.8564 199° South 455 843 36.000 -56 Descending Jacksonville Center
Sat 09:22:55 34.0789 -80.8642 183° South 455 843 36.000  Level Jacksonville Center
Sat 09:23:54 33.9517 -80.8747 184° South 455 843 36.000  Level Jacksonville Center
Sat 09:24:54 33.8289 -80.8850 184° South 455 843 36.000  Level Jacksonville Center
Sat 09:25:55 33.7017 -80.8953 184° South 455 843 36.000  Level Jacksonville Center
Sat 09:26:55 33.5767 -80.9081 185° South 455 843 36.000  Level Jacksonville Center
Sat 09:27:54 33.4453 -80.9211 185° South 463 858 36.000  Level Jacksonville Center
Sat 09:28:54 33.3119 -80.9314 184° South 476 882 36.000  Level Jacksonville Center
Sat 09:29:54 33.1806 -80.9419 184° South 476 882 36.000  Level Jacksonville Center
Sat 09:30:54 33.0328 -80.9550 184° South 484 896 36.000  Level Jacksonville Center
Sat 09:31:54 32.9014 -80.9653 184° South 484 896 36.000 304 Level Jacksonville Center
Sat 09:37:48 32.1610 -81.0030 184° South 466 863 38.100 215 Climbing FlightAware ADS-B
Sat 09:41:41 31.6690 -81.0220 182° South 466 863 38.100 -47 Level FlightAware ADS-B
Sat 09:44:14 31.3300 -81.0350 182° South 466 863 37.800 -95 Descending FlightAware ADS-B
Sat 09:44:51 31.2620 -81.0370 181° South 466 863 37.800  Level FlightAware ADS-B
Sat 09:45:53 31.1490 -81.0420 182° South 466 863 37.800  Level FlightAware ADS-B
Sat 09:46:31 31.0790 -81.0450 182° South 466 863 37.800  Level FlightAware ADS-B
Sat 09:47:19 30.9910 -81.0480 182° South 466 863 37.800  Level FlightAware ADS-B
Sat 09:47:56 30.9230 -81.0510 182° South 466 863 37.800  Level FlightAware ADS-B
Sat 09:48:56 30.8140 -81.0560 182° South 466 863 37.800  Level FlightAware ADS-B
Sat 09:49:32 30.7480 -81.0580 181° South 466 863 37.800  Level FlightAware ADS-B
Sat 09:50:07 30.6840 -81.0610 182° South 466 863 37.800  Level FlightAware ADS-B
Sat 09:51:09 30.5700 -81.0660 182° South 466 863 37.800 -2.242 Level FlightAware ADS-B
Sat 09:51:46 30.3200 -81.0740 182° South 466 863 34.100 -2.886 Descending FlightAware ADS-B
Sat 09:52:28 30.2300 -81.0780 182° South 462 856 34.000 -79 Descending FlightAware ADS-B
Sat 09:53:02 30.1520 -81.0810 182° South 466 863 34.000 -1.083 Level FlightAware ADS-B
Sat 09:53:40 30.1450 -81.0810 180° South 473 875 32.700 -1.839 Descending FlightAware ADS-B
Sat 09:54:04 30.0210 -81.0830 181° South 480 888 32.100 -583 Descending FlightAware ADS-B
Sat 09:54:52 29.9320 -81.0830 180° South 481 892 32.000 -86 Descending FlightAware ADS-B
Sat 09:55:14 29.8900 -81.0830 180° South 481 892 32.000  Level FlightAware ADS-B
Sat 09:55:50 29.8220 -81.0830 180° South 481 892 32.000 -1.613 Level FlightAware ADS-B
Sat 09:56:47 29.6690 -81.0850 181° South 478 885 29.500 -1.282 Descending FlightAware ADS-B
Sat 09:57:47 29.5560 -81.0850 180° South 478 885 29.500  Level FlightAware ADS-B
Sat 09:58:24 29.4860 -81.0850 180° South 478 885 29.500  Level FlightAware ADS-B
Sat 09:59:13 29.3940 -81.0850 180° South 478 885 29.500  Level FlightAware ADS-B
Sat 09:59:49 29.3260 -81.0850 180° South 478 885 29.500 -10.771 Level FlightAware ADS-B
Sat 10:00:36 29.2167 -81.0833 180° South 385 713 14.600 -9.308 Descending Orlando TRACON
Sat 10:01:36 29.1167 -81.0833 180° South 366 678 12.900 -1.300 Descending Orlando TRACON
Sat 10:02:36 29.0167 -81.0833 180° South 322 597 12.000 -950 Descending Orlando TRACON
Sat 10:03:36 28.9333 -81.0833 180° South 287 531 11.000 -1.300 Descending Orlando TRACON
Sat 10:04:36 28.8500 -81.0667 170° South 284 526 9.400 -1.289 Descending Orlando TRACON
Sat 10:05:37 28.7833 -81.0833 192° South 260 481 8.400 -1.041 Descending Orlando TRACON
Sat 10:06:37 28.7667 -81.1500 254° West 241 446 7.300 -1.004 Descending Orlando TRACON
Sat 10:11:49 28.5160 -81.2830 254° West 1.400 -990 Descending FlightAware ADS-B
Sat 10:13:11 28.4690 -81.2830 180° South 132 245 800 -439 Descending FlightAware ADS-B
Sat 10:20:00 28.4294 -81.3090 336° Northwest  Level Estimated

Login

Don't have an account? Register now (free) for customized features, flight alerts, and more!